createdAt,value
2018-06-28T00:02:00.335Z,2.00
2018-06-28T00:04:28.942Z,1.70
2018-06-28T00:06:57.268Z,1.60
2018-06-28T00:09:26.477Z,1.60
2018-06-28T00:18:53.501Z,1.60
2018-06-28T00:21:21.905Z,1.53
2018-06-28T00:23:50.332Z,1.90
2018-06-28T00:26:18.736Z,1.33
2018-06-28T00:28:47.048Z,1.57
2018-06-28T00:31:15.505Z,1.53
2018-06-28T00:33:43.947Z,1.60
2018-06-28T00:36:12.273Z,1.50
2018-06-28T00:38:40.550Z,1.50
2018-06-28T00:41:08.947Z,1.70
2018-06-28T00:43:37.287Z,1.80
2018-06-28T00:46:05.732Z,1.43
2018-06-28T00:48:34.055Z,1.70
2018-06-28T00:51:02.324Z,1.70
2018-06-28T00:53:30.791Z,1.60
2018-06-28T00:55:59.253Z,1.90
2018-06-28T00:58:27.586Z,1.90
2018-06-28T01:00:55.995Z,1.60
2018-06-28T01:03:24.471Z,1.70
2018-06-28T01:05:53.017Z,1.73
2018-06-28T01:08:21.480Z,1.90
2018-06-28T01:10:49.815Z,1.70
2018-06-28T01:13:18.347Z,1.90
2018-06-28T01:15:46.724Z,2.07
2018-06-28T01:18:15.257Z,1.60
2018-06-28T01:20:43.697Z,2.07
2018-06-28T01:23:12.028Z,1.50
2018-06-28T01:25:40.381Z,1.77
2018-06-28T01:28:08.664Z,1.80
2018-06-28T01:30:36.961Z,2.00
2018-06-28T01:33:05.334Z,1.80
2018-06-28T01:35:33.769Z,1.90
2018-06-28T01:38:02.137Z,1.83
2018-06-28T01:40:30.474Z,1.90
2018-06-28T01:43:10.403Z,2.00
2018-06-28T01:45:38.814Z,1.93
2018-06-28T01:48:07.209Z,2.27
2018-06-28T01:50:35.505Z,1.87
2018-06-28T01:53:03.887Z,1.70
2018-06-28T01:55:32.149Z,1.90
2018-06-28T01:58:00.524Z,2.13
2018-06-28T02:00:28.911Z,2.23
2018-06-28T02:02:57.292Z,1.97
2018-06-28T02:05:25.714Z,1.77
2018-06-28T02:07:54.224Z,2.07
2018-06-28T02:10:22.546Z,2.13
2018-06-28T02:12:50.814Z,1.97
2018-06-28T02:15:19.168Z,2.30
2018-06-28T02:17:47.533Z,1.97
2018-06-28T02:20:15.923Z,2.33
2018-06-28T02:22:44.179Z,1.97
2018-06-28T02:25:12.609Z,2.23
2018-06-28T02:27:40.960Z,1.97
2018-06-28T02:30:09.420Z,1.80
2018-06-28T02:32:37.800Z,2.23
2018-06-28T02:35:06.229Z,2.10
2018-06-28T02:37:34.751Z,2.10
2018-06-28T02:40:03.161Z,2.20
2018-06-28T02:42:31.461Z,1.60
2018-06-28T02:44:59.758Z,2.00
2018-06-28T02:47:28.327Z,2.13
2018-06-28T02:49:56.655Z,2.33
2018-06-28T02:52:24.966Z,1.97
2018-06-28T02:54:53.254Z,2.63
2018-06-28T02:57:21.559Z,2.33
2018-06-28T02:59:49.813Z,2.43
2018-06-28T03:02:18.158Z,2.43
2018-06-28T03:04:46.454Z,1.90
2018-06-28T03:07:14.809Z,2.40
2018-06-28T03:09:43.076Z,2.00
2018-06-28T03:12:11.622Z,2.20
2018-06-28T03:14:39.937Z,2.30
2018-06-28T03:17:08.774Z,2.23
2018-06-28T03:19:37.180Z,2.00
2018-06-28T03:22:05.646Z,2.23
2018-06-28T03:24:33.908Z,2.07
2018-06-28T03:27:02.262Z,2.00
2018-06-28T03:29:30.638Z,2.13
2018-06-28T03:31:58.948Z,2.23
2018-06-28T03:34:27.258Z,2.10
2018-06-28T03:36:55.803Z,2.00
2018-06-28T03:39:24.576Z,2.07
2018-06-28T03:41:53.057Z,2.33
2018-06-28T03:44:21.436Z,2.23
2018-06-28T03:46:49.736Z,2.40
2018-06-28T03:49:18.112Z,2.10
2018-06-28T03:51:46.429Z,2.23
2018-06-28T03:54:14.870Z,2.30
2018-06-28T03:56:43.162Z,2.20
2018-06-28T03:59:11.539Z,2.20
2018-06-28T04:01:39.929Z,2.23
2018-06-28T04:04:08.304Z,2.10
2018-06-28T04:06:36.711Z,2.40
2018-06-28T04:09:08.679Z,2.07
2018-06-28T04:11:37.040Z,2.10
2018-06-28T04:14:05.430Z,2.00
2018-06-28T04:16:33.862Z,2.63
2018-06-28T04:19:02.197Z,2.40
2018-06-28T04:21:30.587Z,2.20
2018-06-28T04:23:58.893Z,2.27
2018-06-28T04:26:27.448Z,2.23
2018-06-28T04:28:55.729Z,2.10
2018-06-28T04:31:24.012Z,2.30
2018-06-28T04:33:52.473Z,2.07
2018-06-28T04:36:20.855Z,2.60
2018-06-28T04:38:49.140Z,2.27
2018-06-28T04:41:17.573Z,1.90
2018-06-28T04:43:45.881Z,2.27
2018-06-28T04:46:14.192Z,2.17
2018-06-28T04:48:42.522Z,2.10
2018-06-28T04:51:10.812Z,2.57
2018-06-28T04:53:39.155Z,2.43
2018-06-28T04:56:07.832Z,2.40
2018-06-28T04:58:36.207Z,2.40
2018-06-28T05:01:04.544Z,2.17
2018-06-28T05:03:32.860Z,2.13
2018-06-28T05:06:01.968Z,2.40
2018-06-28T05:08:30.367Z,2.37
2018-06-28T05:11:00.387Z,2.20
2018-06-28T05:13:28.680Z,1.80
2018-06-28T05:15:57.033Z,2.30
2018-06-28T05:18:25.479Z,1.77
2018-06-28T05:20:53.830Z,2.33
2018-06-28T05:23:22.401Z,2.27
2018-06-28T05:25:50.661Z,2.50
2018-06-28T05:28:19.086Z,1.97
2018-06-28T05:30:47.465Z,2.33
2018-06-28T05:33:15.978Z,2.37
2018-06-28T05:35:44.452Z,2.40
2018-06-28T05:38:12.910Z,2.47
2018-06-28T05:40:41.183Z,2.57
2018-06-28T05:43:09.518Z,2.73
2018-06-28T05:45:37.830Z,2.77
2018-06-28T05:48:06.313Z,2.90
2018-06-28T05:50:34.833Z,2.23
2018-06-28T05:53:03.311Z,2.63
2018-06-28T05:55:32.259Z,2.40
2018-06-28T05:58:01.319Z,2.40
2018-06-28T06:00:29.642Z,2.43
2018-06-28T06:02:58.107Z,2.73
2018-06-28T06:05:26.489Z,2.40
2018-06-28T06:07:54.838Z,2.67
2018-06-28T06:10:23.286Z,2.60
2018-06-28T06:12:51.596Z,2.70
2018-06-28T06:15:20.012Z,2.27
2018-06-28T06:17:48.486Z,2.13
2018-06-28T06:20:17.020Z,3.00
2018-06-28T06:22:45.472Z,2.70
2018-06-28T06:25:13.901Z,3.10
2018-06-28T06:27:42.385Z,2.80
2018-06-28T06:30:11.198Z,2.30
2018-06-28T06:32:39.637Z,2.80
2018-06-28T06:35:09.382Z,2.20
2018-06-28T06:37:37.827Z,2.90
2018-06-28T06:40:06.428Z,2.70
2018-06-28T06:42:34.867Z,2.53
2018-06-28T06:45:03.226Z,2.43
2018-06-28T06:47:31.675Z,3.00
2018-06-28T06:50:00.108Z,2.80
2018-06-28T06:52:30.598Z,3.10
2018-06-28T06:54:59.169Z,3.37
2018-06-28T06:57:27.558Z,3.03
2018-06-28T06:59:56.106Z,2.70
2018-06-28T07:02:24.378Z,2.43
2018-06-28T07:04:52.779Z,2.70
2018-06-28T07:07:21.056Z,2.60
2018-06-28T07:09:49.451Z,2.80
2018-06-28T07:12:18.078Z,2.87
2018-06-28T07:14:46.500Z,2.77
2018-06-28T07:17:14.791Z,2.60
2018-06-28T07:19:43.158Z,2.53
2018-06-28T07:22:12.452Z,2.70
2018-06-28T07:24:41.711Z,3.00
2018-06-28T07:27:10.031Z,2.13
2018-06-28T07:29:38.466Z,2.60
2018-06-28T07:32:06.956Z,2.50
2018-06-28T07:34:35.335Z,2.60
2018-06-28T07:37:03.774Z,2.70
2018-06-28T07:39:32.194Z,2.87
2018-06-28T07:42:00.595Z,3.03
2018-06-28T07:44:29.077Z,2.70
2018-06-28T07:46:57.676Z,2.97
2018-06-28T07:49:26.149Z,2.70
2018-06-28T07:51:54.545Z,3.33
2018-06-28T07:54:22.910Z,3.40
2018-06-28T07:56:51.229Z,3.20
2018-06-28T07:59:19.527Z,3.00
2018-06-28T08:01:47.971Z,2.73
2018-06-28T08:04:16.895Z,3.30
2018-06-28T08:06:45.272Z,3.27
2018-06-28T08:09:13.640Z,3.07
2018-06-28T08:11:42.091Z,2.97
2018-06-28T08:14:10.645Z,3.40
2018-06-28T08:16:38.989Z,3.23
2018-06-28T08:19:08.428Z,3.13
2018-06-28T08:21:36.954Z,3.40
2018-06-28T08:24:05.631Z,2.80
2018-06-28T08:26:34.347Z,2.83
2018-06-28T08:29:03.275Z,2.93
2018-06-28T08:31:32.169Z,2.80
2018-06-28T08:34:01.678Z,3.00
2018-06-28T08:36:33.015Z,2.73
2018-06-28T08:39:07.154Z,3.37
2018-06-28T08:42:09.078Z,3.20
2018-06-28T08:44:37.772Z,2.97
2018-06-28T08:47:06.502Z,3.03
2018-06-28T08:49:35.115Z,2.47
2018-06-28T08:52:03.558Z,3.13
2018-06-28T08:54:31.960Z,3.10
2018-06-28T08:58:26.374Z,2.80
2018-06-28T09:01:00.952Z,3.00
2018-06-28T09:03:41.895Z,3.03
2018-06-28T09:06:12.000Z,3.23
2018-06-28T09:08:40.643Z,2.63
2018-06-28T09:11:09.470Z,2.47
2018-06-28T09:13:38.176Z,2.93
2018-06-28T09:16:06.708Z,3.00
2018-06-28T09:18:35.427Z,2.90
2018-06-28T09:21:03.784Z,2.90
2018-06-28T09:23:33.051Z,3.30
2018-06-28T09:26:02.784Z,2.87
2018-06-28T09:28:31.710Z,3.00
2018-06-28T09:31:00.212Z,3.07
2018-06-28T09:33:30.010Z,3.00
2018-06-28T09:35:58.935Z,2.97
2018-06-28T09:38:28.190Z,2.47
2018-06-28T09:40:59.429Z,3.27
2018-06-28T09:43:28.218Z,2.70
2018-06-28T09:45:57.009Z,2.43
2018-06-28T09:48:26.342Z,2.50
2018-06-28T09:50:56.684Z,2.50
2018-06-28T09:53:25.623Z,3.00
2018-06-28T09:55:54.386Z,2.60
2018-06-28T09:58:22.707Z,2.27
2018-06-28T10:00:51.134Z,2.60
2018-06-28T10:03:19.540Z,2.90
2018-06-28T10:05:47.964Z,2.80
2018-06-28T10:08:16.253Z,3.20
2018-06-28T10:10:44.608Z,2.90
2018-06-28T10:13:13.020Z,2.40
2018-06-28T10:15:41.307Z,2.40
2018-06-28T10:18:09.743Z,2.93
2018-06-28T10:20:38.123Z,3.03
2018-06-28T10:23:06.470Z,2.97
2018-06-28T10:25:34.835Z,2.63
2018-06-28T10:28:03.335Z,2.83
2018-06-28T11:52:29.711Z,3.30
2018-06-28T11:54:58.371Z,2.90
2018-06-28T11:57:26.700Z,2.77
2018-06-28T11:59:55.096Z,2.90
2018-06-28T12:02:23.439Z,2.80
2018-06-28T12:04:51.831Z,2.90
2018-06-28T12:07:20.194Z,2.63
2018-06-28T12:09:48.713Z,2.30
2018-06-28T12:12:17.345Z,2.70
2018-06-28T12:14:45.708Z,2.60
2018-06-28T12:17:14.190Z,2.30
2018-06-28T12:19:42.743Z,2.50
2018-06-28T12:22:11.159Z,2.50
2018-06-28T12:24:39.699Z,2.30
2018-06-28T12:27:08.192Z,2.63
2018-06-28T12:29:36.574Z,3.93
2018-06-28T12:32:04.972Z,2.80
2018-06-28T12:34:33.402Z,2.53
2018-06-28T12:37:01.780Z,2.87
2018-06-28T12:39:30.100Z,2.20
2018-06-28T12:41:58.499Z,2.40
2018-06-28T12:44:26.940Z,2.40
2018-06-28T12:48:04.628Z,2.87
2018-06-28T12:50:33.031Z,2.53
2018-06-28T12:53:03.547Z,2.40
2018-06-28T12:56:42.327Z,2.43
2018-06-28T12:59:12.236Z,3.13
2018-06-28T13:01:41.182Z,2.20
2018-06-28T13:04:09.475Z,2.57
2018-06-28T13:06:37.960Z,2.70
2018-06-28T13:09:13.300Z,3.00
2018-06-28T13:11:41.906Z,2.50
2018-06-28T13:14:10.397Z,2.43
2018-06-28T13:16:38.818Z,2.40
2018-06-28T13:19:07.242Z,2.13
2018-06-28T13:21:35.613Z,2.77
2018-06-28T13:24:03.953Z,2.40
2018-06-28T13:26:32.416Z,2.80
2018-06-28T13:29:00.695Z,2.17
2018-06-28T13:31:29.641Z,2.73
2018-06-28T13:33:58.961Z,2.03
2018-06-28T13:36:27.530Z,2.80
2018-06-28T13:38:55.913Z,2.10
2018-06-28T13:41:24.480Z,2.50
2018-06-28T13:43:52.920Z,2.20
2018-06-28T13:46:21.269Z,2.70
2018-06-28T13:48:49.837Z,2.60
2018-06-28T13:51:18.176Z,3.20
2018-06-28T13:53:46.810Z,2.60
2018-06-28T13:56:15.177Z,2.57
2018-06-28T13:58:43.794Z,2.90
2018-06-28T14:01:12.378Z,2.50
2018-06-28T14:03:40.739Z,2.80
2018-06-28T14:06:09.129Z,2.90
2018-06-28T14:08:37.572Z,2.80
2018-06-28T14:11:06.014Z,2.80
2018-06-28T14:13:34.308Z,2.63
2018-06-28T14:16:02.731Z,2.37
2018-06-28T14:18:31.132Z,2.43
2018-06-28T14:20:59.999Z,2.70
2018-06-28T14:23:28.886Z,2.83
2018-06-28T14:25:57.548Z,2.53
2018-06-28T14:28:25.820Z,2.50
2018-06-28T14:30:54.296Z,2.80
2018-06-28T14:33:22.637Z,2.60
2018-06-28T14:35:51.077Z,2.50
2018-06-28T14:38:19.929Z,2.63
2018-06-28T14:40:48.892Z,2.73
2018-06-28T14:43:17.619Z,2.33
2018-06-28T14:45:46.149Z,2.53
2018-06-28T14:48:14.755Z,2.57
2018-06-28T14:50:43.170Z,2.83
2018-06-28T14:53:11.891Z,3.10
2018-06-28T14:55:40.714Z,2.80
2018-06-28T14:58:12.102Z,3.70
2018-06-28T15:00:44.079Z,2.47
2018-06-28T15:03:13.631Z,2.23
2018-06-28T15:05:42.619Z,2.40
2018-06-28T15:08:11.007Z,2.30
2018-06-28T15:10:39.368Z,2.33
2018-06-28T15:13:08.023Z,2.10
2018-06-28T15:15:36.568Z,2.70
2018-06-28T15:18:04.886Z,2.50
2018-06-28T15:20:33.695Z,2.57
2018-06-28T15:23:02.192Z,2.63
2018-06-28T15:25:31.092Z,2.80
2018-06-28T15:27:59.722Z,2.90
2018-06-28T15:30:28.037Z,2.40
2018-06-28T15:32:56.874Z,2.57
2018-06-28T15:35:25.320Z,1.90
2018-06-28T15:37:53.998Z,2.60
2018-06-28T15:40:22.676Z,2.77
2018-06-28T15:42:51.132Z,2.13
2018-06-28T15:45:19.475Z,2.50
2018-06-28T15:47:48.196Z,2.67
2018-06-28T15:50:16.925Z,2.60
2018-06-28T15:52:45.920Z,2.57
2018-06-28T15:55:14.768Z,2.70
2018-06-28T15:57:43.070Z,2.50
2018-06-28T16:00:11.614Z,2.97
2018-06-28T16:02:40.147Z,2.53
2018-06-28T16:05:08.504Z,2.47
2018-06-28T16:07:36.894Z,2.67
2018-06-28T16:10:05.769Z,2.50
2018-06-28T16:12:34.322Z,2.23
2018-06-28T16:15:02.887Z,2.20
2018-06-28T16:17:31.196Z,2.60
2018-06-28T16:19:59.663Z,2.10
2018-06-28T16:22:28.008Z,2.33
2018-06-28T16:24:56.537Z,2.20
2018-06-28T16:27:25.111Z,2.53
2018-06-28T16:29:53.433Z,2.37
2018-06-28T16:32:21.944Z,2.40
2018-06-28T16:34:51.018Z,2.00
2018-06-28T16:37:19.340Z,2.23
2018-06-28T16:39:47.976Z,2.43
2018-06-28T16:42:16.340Z,2.23
2018-06-28T16:44:44.669Z,2.20
2018-06-28T16:47:13.012Z,2.20
2018-06-28T16:49:41.498Z,2.27
2018-06-28T16:52:10.039Z,2.50
2018-06-28T16:54:38.455Z,2.63
2018-06-28T16:57:08.019Z,2.50
2018-06-28T16:59:36.828Z,2.30
2018-06-28T17:02:05.402Z,2.30
2018-06-28T17:04:33.940Z,2.77
2018-06-28T17:07:02.752Z,3.00
2018-06-28T17:09:31.063Z,2.37
2018-06-28T17:11:59.443Z,2.43
2018-06-28T17:14:28.098Z,2.80
2018-06-28T17:16:57.654Z,2.80
2018-06-28T17:19:25.972Z,2.73
2018-06-28T17:21:54.426Z,2.60
2018-06-28T17:24:23.731Z,2.60
2018-06-28T17:26:52.285Z,2.63
2018-06-28T17:29:20.739Z,2.53
2018-06-28T17:31:49.250Z,2.23
2018-06-28T17:34:17.809Z,2.77
2018-06-28T17:36:46.253Z,2.87
2018-06-28T17:39:14.821Z,2.80
2018-06-28T17:41:43.609Z,2.73
2018-06-28T17:44:12.215Z,2.80
2018-06-28T17:46:40.775Z,3.23
2018-06-28T17:49:09.357Z,2.20
2018-06-28T17:51:38.075Z,2.50
2018-06-28T17:54:06.750Z,2.37
2018-06-28T17:56:35.265Z,2.80
2018-06-28T17:59:03.619Z,2.60
2018-06-28T18:01:32.041Z,3.13
2018-06-28T18:04:00.502Z,2.73
2018-06-28T18:06:29.176Z,2.83
2018-06-28T18:08:57.648Z,2.90
2018-06-28T18:11:25.969Z,3.33
2018-06-28T18:13:54.471Z,2.40
2018-06-28T18:16:23.188Z,2.93
2018-06-28T18:18:52.976Z,2.70
2018-06-28T18:21:21.556Z,3.00
2018-06-28T18:23:51.149Z,2.73
2018-06-28T18:26:20.493Z,3.17
2018-06-28T18:28:49.347Z,2.53
2018-06-28T18:31:18.082Z,3.03
2018-06-28T18:33:46.466Z,2.97
2018-06-28T18:36:14.908Z,3.40
2018-06-28T18:38:43.380Z,3.00
2018-06-28T18:41:12.004Z,2.57
2018-06-28T18:43:41.494Z,2.60
2018-06-28T18:46:10.250Z,2.90
2018-06-28T18:48:38.955Z,3.50
2018-06-28T18:51:07.618Z,2.70
2018-06-28T18:53:36.359Z,2.70
2018-06-28T18:56:05.105Z,3.00
2018-06-28T18:58:33.964Z,2.87
2018-06-28T19:01:02.592Z,2.83
2018-06-28T19:03:31.582Z,2.90
2018-06-28T19:06:00.212Z,3.23
2018-06-28T19:08:29.469Z,2.80
2018-06-28T19:10:58.727Z,2.60
2018-06-28T19:13:27.996Z,3.03
2018-06-28T19:16:01.940Z,2.83
2018-06-28T19:18:31.124Z,3.37
2018-06-28T19:21:05.178Z,3.00
2018-06-28T19:23:38.959Z,3.10
2018-06-28T19:26:07.492Z,3.40
2018-06-28T19:28:36.000Z,3.43
2018-06-28T19:31:09.568Z,3.00
2018-06-28T19:33:37.974Z,3.00
2018-06-28T19:36:06.585Z,2.77
2018-06-28T19:38:40.130Z,3.30
2018-06-28T19:41:13.944Z,3.07
2018-06-28T19:43:42.660Z,2.73
2018-06-28T19:46:11.007Z,3.13
2018-06-28T19:48:39.757Z,3.10
2018-06-28T19:51:13.473Z,2.57
2018-06-28T19:53:41.968Z,3.30
2018-06-28T19:56:10.295Z,2.87
2018-06-28T19:58:38.889Z,3.30
2018-06-28T20:01:13.864Z,3.27
2018-06-28T20:03:47.461Z,2.60
2018-06-28T20:06:16.099Z,2.60
2018-06-28T20:08:44.880Z,2.90
2018-06-28T20:11:13.486Z,2.90
2018-06-28T20:13:47.540Z,3.30
2018-06-28T20:16:21.281Z,3.03
2018-06-28T20:18:54.933Z,2.77
2018-06-28T20:21:23.361Z,3.20
2018-06-28T20:23:52.028Z,2.80
2018-06-28T20:26:26.006Z,2.40
2018-06-28T20:28:59.806Z,2.40
2018-06-28T20:31:33.764Z,3.00
2018-06-28T20:34:07.525Z,2.60
2018-06-28T20:36:36.131Z,3.40
2018-06-28T20:39:07.223Z,4.10
2018-06-28T20:41:35.612Z,3.50
2018-06-28T20:44:04.413Z,3.50
2018-06-28T20:46:33.244Z,3.00
2018-06-28T20:49:01.732Z,3.00
2018-06-28T20:51:30.964Z,3.00
2018-06-28T20:53:59.619Z,3.63
2018-06-28T20:56:28.561Z,2.73
2018-06-28T20:58:57.255Z,3.20
2018-06-28T21:01:25.945Z,2.63
2018-06-28T21:03:54.358Z,2.90
2018-06-28T21:06:23.142Z,2.50
2018-06-28T21:08:51.977Z,2.33
2018-06-28T21:11:20.528Z,3.00
2018-06-28T21:13:49.913Z,2.50
2018-06-28T21:16:18.964Z,2.80
2018-06-28T21:18:48.694Z,2.93
2018-06-28T21:21:18.602Z,2.90
2018-06-28T21:23:46.945Z,2.77
2018-06-28T21:26:16.313Z,2.70
2018-06-28T21:28:45.112Z,3.03
2018-06-28T21:31:13.537Z,3.10
2018-06-28T21:33:41.982Z,4.33
2018-06-28T21:36:10.530Z,3.33
2018-06-28T21:38:39.132Z,3.00
2018-06-28T21:41:08.491Z,3.20
2018-06-28T21:43:38.531Z,3.30
2018-06-28T21:46:06.968Z,2.90
2018-06-28T21:48:35.787Z,3.47
2018-06-28T21:51:04.096Z,3.07
2018-06-28T21:53:32.645Z,2.80
2018-06-28T21:56:01.405Z,3.67
2018-06-28T21:58:29.957Z,2.90
2018-06-28T22:00:58.843Z,2.83
2018-06-28T22:03:27.480Z,3.17
2018-06-28T22:05:56.024Z,3.00
2018-06-28T22:08:25.660Z,3.50
2018-06-28T22:10:54.506Z,3.57
2018-06-28T22:13:23.095Z,3.10
2018-06-28T22:15:51.576Z,3.07
2018-06-28T22:18:20.059Z,2.83
2018-06-28T22:20:48.770Z,2.93
2018-06-28T22:23:21.704Z,3.07
2018-06-28T22:25:51.216Z,3.40
2018-06-28T22:28:19.888Z,3.00
2018-06-28T22:30:48.782Z,3.10
2018-06-28T22:33:17.736Z,2.90
2018-06-28T22:35:46.345Z,3.00
2018-06-28T22:38:29.492Z,2.57
2018-06-28T22:40:58.063Z,2.63
2018-06-28T22:43:26.875Z,3.70
2018-06-28T22:45:55.368Z,2.80
2018-06-28T22:48:23.777Z,3.00
2018-06-28T22:50:52.447Z,2.80
2018-06-28T22:53:21.268Z,3.37
2018-06-28T22:55:49.738Z,3.13
2018-06-28T22:58:18.161Z,3.57
2018-06-28T23:00:46.459Z,3.73
2018-06-28T23:03:14.962Z,3.50
2018-06-28T23:05:43.353Z,3.73
2018-06-28T23:08:12.020Z,3.70
2018-06-28T23:10:40.738Z,3.23
2018-06-28T23:14:00.373Z,3.47
2018-06-28T23:25:17.076Z,3.17
2018-06-28T23:30:41.827Z,3.17
2018-06-28T23:33:10.153Z,3.23
2018-06-28T23:35:38.468Z,3.97
2018-06-28T23:38:06.837Z,4.30
2018-06-28T23:40:35.302Z,3.20
2018-06-28T23:43:03.663Z,2.97
2018-06-28T23:45:32.067Z,3.57
2018-06-28T23:48:00.990Z,3.70
2018-06-28T23:50:29.506Z,3.80
2018-06-28T23:52:57.996Z,3.40
2018-06-28T23:55:26.622Z,3.90
2018-06-28T23:57:54.901Z,3.67
